Terminal Aerodrome Forecast
Issued by NWS

Home | Current Version | Previous Version | Text Only | Print | Product List | Glossary On
Versions: 1 2 3 4 5 6 7 8 9 10 11 12 13 14 15 16 17 18 19 20 21 22 23 24 25 26
233
FTUS41 KOKX 242335
TAFHPN
TAF
KHPN 242335Z 2500/2524 16008KT P6SM FEW004 SCT030
      TEMPO 2503/2507 BKN003
     FM250700 17006KT 1SM BR OVC002
     FM251000 16005KT 1/2SM FG VV002
     FM251600 14006KT 1SM BR OVC002
     FM252300 15010KT 6SM -SHRA BR BKN005 PROB30 2523/2524 5SM -TSRA
      BKN005CB
      AMD NOT SKED=

USA.gov is the U.S. government's official web portal to all federal, state and local government web resources and services.